createdAt,value
2022-09-28T00:00:32.743Z,97.10
2022-09-28T00:02:59.360Z,97.10
2022-09-28T00:05:28.362Z,97.00
2022-09-28T00:07:55.651Z,97.00
2022-09-28T00:10:22.391Z,97.00
2022-09-28T00:12:54.821Z,97.20
2022-09-28T00:15:21.817Z,97.00
2022-09-28T00:17:47.896Z,97.00
2022-09-28T00:20:16.486Z,97.10
2022-09-28T00:22:43.450Z,97.10
2022-09-28T00:25:10.336Z,97.10
2022-09-28T00:27:37.210Z,97.10
2022-09-28T00:30:04.608Z,97.20
2022-09-28T00:32:31.574Z,97.20
2022-09-28T00:34:58.841Z,97.30
2022-09-28T00:37:27.223Z,97.40
2022-09-28T00:39:53.939Z,97.40
2022-09-28T00:42:23.542Z,97.50
2022-09-28T00:44:55.339Z,97.60
2022-09-28T00:47:48.118Z,97.60
2022-09-28T00:50:23.804Z,97.50
2022-09-28T00:53:07.259Z,97.40
2022-09-28T00:55:44.247Z,97.30
2022-09-28T00:58:15.308Z,97.30
2022-09-28T01:00:41.864Z,97.30
2022-09-28T01:03:09.331Z,97.30
2022-09-28T01:05:37.742Z,97.30
2022-09-28T01:08:04.864Z,97.30
2022-09-28T01:10:31.611Z,97.30
2022-09-28T01:12:58.581Z,97.30
2022-09-28T01:15:27.720Z,97.40
2022-09-28T01:17:59.422Z,97.40
2022-09-28T01:20:44.640Z,97.40
2022-09-28T01:23:30.861Z,97.50
2022-09-28T01:26:27.120Z,97.50
2022-09-28T01:29:05.852Z,97.50
2022-09-28T01:31:36.111Z,97.40
2022-09-28T01:34:14.435Z,97.40
2022-09-28T01:36:46.601Z,97.30
2022-09-28T01:39:17.516Z,97.30
2022-09-28T01:41:48.632Z,97.20
2022-09-28T01:44:18.499Z,97.30
2022-09-28T01:46:49.902Z,97.30
2022-09-28T01:49:19.574Z,97.30
2022-09-28T01:52:04.294Z,97.30
2022-09-28T01:55:01.694Z,97.40
2022-09-28T01:57:38.550Z,97.30
2022-09-28T02:00:06.828Z,97.30
2022-09-28T02:03:02.198Z,97.40
2022-09-28T02:05:38.301Z,97.40
2022-09-28T02:08:08.576Z,97.40
2022-09-28T02:10:43.197Z,97.40
2022-09-28T02:13:19.153Z,97.40
2022-09-28T02:15:51.182Z,97.50
2022-09-28T02:18:17.737Z,97.60
2022-09-28T02:21:08.417Z,97.60
2022-09-28T02:23:38.866Z,97.60
2022-09-28T02:26:11.405Z,97.60
2022-09-28T02:28:37.577Z,97.60
2022-09-28T02:31:03.774Z,97.50
2022-09-28T02:33:39.077Z,97.50
2022-09-28T02:36:05.774Z,97.60
2022-09-28T02:38:32.413Z,97.60
2022-09-28T02:41:26.261Z,97.60
2022-09-28T02:44:19.365Z,97.60
2022-09-28T02:46:50.407Z,97.60
2022-09-28T02:49:33.342Z,97.70
2022-09-28T02:52:18.609Z,97.70
2022-09-28T02:55:18.070Z,97.60
2022-09-28T02:58:08.427Z,97.60
2022-09-28T03:00:44.750Z,97.60
2022-09-28T03:03:29.263Z,97.60
2022-09-28T03:06:08.493Z,97.70
2022-09-28T03:08:53.051Z,97.70
2022-09-28T03:11:26.180Z,97.70
2022-09-28T03:13:53.244Z,97.70
2022-09-28T03:16:19.927Z,97.70
2022-09-28T03:18:46.982Z,97.70
2022-09-28T03:21:15.184Z,97.70
2022-09-28T03:23:42.603Z,97.70
2022-09-28T03:26:12.295Z,97.70
2022-09-28T03:28:39.155Z,97.70
2022-09-28T03:31:06.223Z,97.80
2022-09-28T03:33:32.736Z,97.80
2022-09-28T03:35:59.399Z,97.90
2022-09-28T03:38:25.913Z,97.90
2022-09-28T03:40:58.729Z,97.90
2022-09-28T03:43:27.923Z,97.90
2022-09-28T03:45:55.920Z,97.90
2022-09-28T03:48:31.883Z,97.80
2022-09-28T03:51:00.778Z,97.80
2022-09-28T03:53:28.867Z,97.80
2022-09-28T03:55:55.277Z,97.80
2022-09-28T03:58:22.231Z,97.70
2022-09-28T04:00:49.350Z,97.70
2022-09-28T04:03:15.669Z,97.70
2022-09-28T04:05:50.783Z,97.70
2022-09-28T04:08:18.201Z,97.70
2022-09-28T04:10:45.244Z,97.70
2022-09-28T04:13:11.447Z,97.70
2022-09-28T04:15:37.873Z,97.70
2022-09-28T04:18:08.756Z,97.70
2022-09-28T04:20:34.818Z,97.80
2022-09-28T04:23:00.874Z,97.70
2022-09-28T04:25:26.937Z,97.70
2022-09-28T04:28:11.665Z,97.70
2022-09-28T04:30:37.717Z,97.70
2022-09-28T04:33:03.740Z,97.70
2022-09-28T04:35:29.864Z,97.60
2022-09-28T04:37:55.944Z,97.70
2022-09-28T04:40:22.084Z,97.70
2022-09-28T04:42:55.295Z,97.80
2022-09-28T04:45:21.968Z,97.70
2022-09-28T04:47:48.084Z,97.70
2022-09-28T04:50:14.156Z,97.70
2022-09-28T04:52:40.208Z,97.70
2022-09-28T04:55:06.589Z,97.70
2022-09-28T04:57:35.931Z,97.60
2022-09-28T05:00:02.385Z,97.60
2022-09-28T05:02:28.906Z,97.60
2022-09-28T05:04:55.836Z,97.60
2022-09-28T05:07:22.006Z,97.60
2022-09-28T05:09:48.737Z,97.70
2022-09-28T05:12:14.817Z,97.70
2022-09-28T05:14:41.349Z,97.70
2022-09-28T05:17:09.001Z,97.70
2022-09-28T05:19:35.019Z,98.00
2022-09-28T05:22:03.833Z,97.70
2022-09-28T05:24:30.534Z,97.70
2022-09-28T05:26:56.984Z,97.70
2022-09-28T05:29:23.091Z,97.70
2022-09-28T05:31:49.147Z,97.70
2022-09-28T05:34:15.847Z,97.70
2022-09-28T05:36:42.170Z,97.70
2022-09-28T05:39:09.099Z,97.70
2022-09-28T05:41:35.217Z,97.70
2022-09-28T05:44:01.417Z,97.70
2022-09-28T05:46:27.526Z,97.70
2022-09-28T05:48:53.787Z,97.70
2022-09-28T05:51:20.141Z,97.60
2022-09-28T05:53:46.413Z,97.70
2022-09-28T05:56:12.541Z,97.70
2022-09-28T05:58:39.054Z,97.80
2022-09-28T06:01:05.577Z,97.80
2022-09-28T06:03:31.773Z,97.80
2022-09-28T06:06:02.146Z,97.80
2022-09-28T06:08:30.193Z,97.80
2022-09-28T06:10:59.953Z,97.80
2022-09-28T06:13:27.119Z,97.80
2022-09-28T06:15:53.681Z,97.90
2022-09-28T06:18:20.385Z,97.90
2022-09-28T06:20:49.364Z,97.80
2022-09-28T06:23:15.430Z,97.80
2022-09-28T06:25:41.486Z,97.90
2022-09-28T06:28:10.775Z,97.90
2022-09-28T06:30:37.779Z,97.90
2022-09-28T06:33:05.515Z,98.10
2022-09-28T06:35:32.181Z,97.80
2022-09-28T06:37:59.286Z,97.90
2022-09-28T06:40:26.187Z,97.80
2022-09-28T06:42:56.334Z,97.80
2022-09-28T06:45:24.808Z,97.90
2022-09-28T06:47:59.241Z,97.90
2022-09-28T06:50:31.679Z,97.90
2022-09-28T06:52:58.169Z,97.90
2022-09-28T06:55:24.478Z,97.90
2022-09-28T06:58:04.802Z,97.90
2022-09-28T07:00:33.814Z,97.80
2022-09-28T07:03:02.050Z,98.00
2022-09-28T07:05:28.888Z,98.00
2022-09-28T07:07:56.065Z,98.00
2022-09-28T07:10:24.343Z,98.00
2022-09-28T07:12:51.389Z,98.00
2022-09-28T07:15:18.061Z,98.00
2022-09-28T07:17:58.566Z,98.00
2022-09-28T07:20:27.489Z,98.00
2022-09-28T07:23:04.496Z,98.10
2022-09-28T07:25:35.705Z,98.10
2022-09-28T07:28:04.253Z,98.10
2022-09-28T07:30:33.478Z,98.20
2022-09-28T07:33:00.877Z,98.20
2022-09-28T07:35:27.543Z,98.40
2022-09-28T07:37:59.614Z,98.60
2022-09-28T07:40:48.565Z,99.70
2022-09-28T07:43:21.675Z,99.20
2022-09-28T07:45:49.791Z,96.00
2022-09-28T07:48:16.864Z,92.40
2022-09-28T07:50:56.625Z,89.10
2022-09-28T07:53:24.481Z,85.00
2022-09-28T07:56:08.257Z,81.40
2022-09-28T07:58:38.398Z,79.70
2022-09-28T08:01:07.099Z,77.30
2022-09-28T08:03:34.359Z,75.70
2022-09-28T08:06:03.067Z,74.00
2022-09-28T08:08:29.381Z,71.70
2022-09-28T08:10:57.178Z,70.10
2022-09-28T08:13:27.023Z,66.70
2022-09-28T08:15:54.014Z,63.20
2022-09-28T08:18:20.830Z,60.10
2022-09-28T08:21:13.029Z,58.40
2022-09-28T08:23:41.932Z,55.80
2022-09-28T08:26:12.104Z,55.40
2022-09-28T08:28:42.163Z,53.30
2022-09-28T08:31:08.646Z,52.40
2022-09-28T08:33:35.229Z,51.10
2022-09-28T08:36:03.748Z,49.80
2022-09-28T08:38:31.986Z,47.90
2022-09-28T08:41:04.752Z,46.90
2022-09-28T08:44:07.621Z,45.80
2022-09-28T08:46:40.327Z,45.00
2022-09-28T08:49:26.261Z,44.40
2022-09-28T08:52:12.756Z,44.60
2022-09-28T08:54:51.008Z,43.20
2022-09-28T08:57:28.714Z,42.20
2022-09-28T08:59:56.917Z,42.40
2022-09-28T09:02:35.709Z,41.50
2022-09-28T09:05:10.418Z,41.60
2022-09-28T09:07:52.380Z,40.60
2022-09-28T09:10:27.991Z,40.20
2022-09-28T09:13:20.755Z,39.30
2022-09-28T09:16:05.140Z,38.30
2022-09-28T09:18:44.646Z,37.90
2022-09-28T09:21:21.233Z,37.00
2022-09-28T09:24:14.137Z,36.50
2022-09-28T09:26:41.118Z,36.80
2022-09-28T09:29:32.148Z,36.30
2022-09-28T09:32:35.041Z,36.30
2022-09-28T09:35:42.023Z,35.90
2022-09-28T09:38:38.280Z,35.30
2022-09-28T09:41:32.208Z,36.00
2022-09-28T09:44:17.374Z,37.10
2022-09-28T09:46:50.870Z,36.40
2022-09-28T09:49:45.014Z,36.60
2022-09-28T09:52:17.272Z,39.30
2022-09-28T09:55:01.128Z,39.10
2022-09-28T09:57:40.213Z,36.60
2022-09-28T10:00:14.803Z,35.60
2022-09-28T10:02:42.732Z,34.10
2022-09-28T10:05:11.791Z,33.20
2022-09-28T10:07:53.438Z,32.10
2022-09-28T10:10:27.862Z,31.40
2022-09-28T10:12:55.061Z,31.40
2022-09-28T10:15:41.438Z,32.60
2022-09-28T10:18:12.395Z,32.50
2022-09-28T10:20:40.737Z,34.40
2022-09-28T10:23:17.066Z,35.70
2022-09-28T10:25:45.715Z,36.60
2022-09-28T10:28:20.676Z,37.70
2022-09-28T10:30:46.925Z,35.70
2022-09-28T10:33:33.706Z,34.50
2022-09-28T10:36:06.801Z,34.30
2022-09-28T10:38:33.824Z,31.30
2022-09-28T10:41:11.129Z,32.10
2022-09-28T10:43:50.187Z,33.20
2022-09-28T10:46:22.706Z,34.60
2022-09-28T10:48:57.783Z,37.60
2022-09-28T10:52:08.276Z,38.80
2022-09-28T10:54:34.601Z,40.60
2022-09-28T10:57:00.799Z,42.40
2022-09-28T10:59:29.860Z,43.70
2022-09-28T11:02:03.965Z,43.40
2022-09-28T11:04:40.032Z,39.60
2022-09-28T11:07:17.973Z,36.80
2022-09-28T11:09:48.777Z,35.00
2022-09-28T11:12:17.581Z,36.40
2022-09-28T11:14:44.031Z,38.90
2022-09-28T11:17:29.945Z,38.50
2022-09-28T11:20:28.903Z,36.40
2022-09-28T11:23:15.371Z,34.10
2022-09-28T11:25:43.556Z,32.10
2022-09-28T11:28:23.176Z,31.00
2022-09-28T11:30:52.017Z,31.00
2022-09-28T11:33:28.633Z,29.70
2022-09-28T11:36:13.003Z,31.50
2022-09-28T11:39:17.625Z,33.80
2022-09-28T11:42:20.182Z,36.50
2022-09-28T11:44:55.450Z,39.20
2022-09-28T11:47:50.547Z,40.70
2022-09-28T11:50:30.533Z,43.60
2022-09-28T11:53:17.543Z,44.80
2022-09-28T11:55:49.583Z,47.00
2022-09-28T11:58:38.737Z,45.00
2022-09-28T12:01:19.151Z,44.40
2022-09-28T12:03:51.618Z,43.70
2022-09-28T12:06:23.268Z,44.00
2022-09-28T12:08:57.732Z,43.00
2022-09-28T12:11:31.777Z,42.30
2022-09-28T12:14:01.198Z,37.30
2022-09-28T12:19:49.944Z,39.50
2022-09-28T12:22:22.826Z,42.80
2022-09-28T12:24:52.156Z,45.70
2022-09-28T12:27:46.650Z,49.20
2022-09-28T12:30:26.188Z,51.60
2022-09-28T12:33:04.171Z,53.60
2022-09-28T12:35:57.744Z,55.60
2022-09-28T12:39:21.730Z,57.70
2022-09-28T12:42:14.317Z,58.70
2022-09-28T12:45:07.427Z,59.30
2022-09-28T12:48:14.924Z,60.30
2022-09-28T12:50:59.990Z,61.60
2022-09-28T12:53:48.343Z,61.80
2022-09-28T12:56:46.231Z,63.60
2022-09-28T12:59:18.339Z,64.40
2022-09-28T13:02:16.143Z,64.80
2022-09-28T13:04:52.093Z,67.00
2022-09-28T13:07:23.398Z,66.60
2022-09-28T13:09:58.907Z,66.30
2022-09-28T13:12:48.657Z,65.60
2022-09-28T13:15:44.302Z,62.60
2022-09-28T13:18:33.076Z,62.30
2022-09-28T13:20:59.201Z,61.10
2022-09-28T13:23:36.662Z,61.60
2022-09-28T13:26:29.252Z,57.80
2022-09-28T13:29:04.276Z,54.30
2022-09-28T13:31:34.032Z,55.70
2022-09-28T13:34:03.503Z,55.10
2022-09-28T13:36:32.406Z,55.70
2022-09-28T13:39:00.051Z,57.70
2022-09-28T13:41:32.804Z,58.40
2022-09-28T13:44:11.605Z,57.50
2022-09-28T13:47:08.113Z,58.50
2022-09-28T13:49:50.892Z,56.70
2022-09-28T13:52:41.329Z,55.90
2022-09-28T13:55:38.466Z,57.40
2022-09-28T13:58:16.870Z,59.00
2022-09-28T14:00:53.200Z,60.40
2022-09-28T14:03:27.791Z,60.80
2022-09-28T14:06:00.136Z,61.80
2022-09-28T14:08:39.038Z,62.40
2022-09-28T14:11:24.634Z,63.70
2022-09-28T14:14:13.138Z,63.00
2022-09-28T14:16:42.993Z,62.60
2022-09-28T14:19:28.315Z,62.60
2022-09-28T14:21:57.522Z,63.70
2022-09-28T14:24:49.918Z,64.80
2022-09-28T14:27:34.584Z,66.10
2022-09-28T14:30:13.321Z,68.10
2022-09-28T14:32:55.470Z,68.90
2022-09-28T14:35:33.557Z,69.60
2022-09-28T14:38:48.085Z,69.60
2022-09-28T14:41:18.947Z,69.90
2022-09-28T14:43:45.026Z,69.90
2022-09-28T14:46:11.318Z,70.10
2022-09-28T14:48:50.110Z,70.40
2022-09-28T14:51:29.499Z,71.20
2022-09-28T14:54:08.180Z,72.00
2022-09-28T14:56:44.047Z,72.60
2022-09-28T14:59:17.623Z,73.40
2022-09-28T15:02:16.236Z,73.80
2022-09-28T15:05:05.809Z,74.60
2022-09-28T15:07:50.917Z,75.10
2022-09-28T15:10:31.304Z,75.40
2022-09-28T15:13:02.208Z,75.80
2022-09-28T15:15:35.980Z,76.10
2022-09-28T15:18:27.835Z,76.60
2022-09-28T15:20:55.393Z,76.80
2022-09-28T15:23:26.101Z,77.00
2022-09-28T15:25:54.851Z,77.30
2022-09-28T15:28:23.256Z,77.50
2022-09-28T15:30:50.287Z,77.70
2022-09-28T15:33:47.256Z,77.70
2022-09-28T15:36:20.653Z,78.00
2022-09-28T15:38:52.562Z,77.90
2022-09-28T15:41:19.291Z,78.20
2022-09-28T15:44:07.928Z,78.50
2022-09-28T15:46:36.520Z,79.30
2022-09-28T15:49:04.154Z,78.80
2022-09-28T15:51:44.177Z,78.90
2022-09-28T15:54:26.338Z,79.20
2022-09-28T15:57:01.229Z,79.40
2022-09-28T15:59:31.551Z,79.30
2022-09-28T16:02:18.107Z,79.60
2022-09-28T16:04:55.092Z,79.90
2022-09-28T16:07:26.957Z,79.90
2022-09-28T16:09:57.866Z,80.00
2022-09-28T16:12:49.431Z,80.10
2022-09-28T16:15:33.532Z,80.00
2022-09-28T16:18:18.298Z,79.90
2022-09-28T16:20:47.104Z,79.60
2022-09-28T16:23:29.614Z,79.70
2022-09-28T16:26:04.042Z,79.80
2022-09-28T16:28:34.561Z,79.90
2022-09-28T16:31:23.755Z,80.30
2022-09-28T16:33:58.404Z,80.60
2022-09-28T16:36:38.924Z,80.60
2022-09-28T16:39:05.056Z,80.70
2022-09-28T16:41:31.482Z,80.80
2022-09-28T16:44:00.611Z,81.20
2022-09-28T16:46:36.695Z,81.50
2022-09-28T16:49:05.167Z,82.10
2022-09-28T16:51:33.481Z,82.10
2022-09-28T16:54:31.444Z,82.70
2022-09-28T16:56:57.914Z,83.30
2022-09-28T16:59:25.328Z,83.60
2022-09-28T17:01:51.624Z,84.20
2022-09-28T17:04:18.136Z,84.80
2022-09-28T17:06:44.436Z,85.50
2022-09-28T17:09:15.104Z,86.00
2022-09-28T17:11:41.213Z,86.60
2022-09-28T17:14:08.180Z,87.00
2022-09-28T17:17:07.803Z,87.40
2022-09-28T17:19:24.417Z,87.80
2022-09-28T17:21:51.999Z,88.20
2022-09-28T17:24:19.106Z,88.50
2022-09-28T17:26:49.134Z,88.80
2022-09-28T17:29:15.485Z,89.30
2022-09-28T17:31:43.436Z,89.50
2022-09-28T17:34:11.771Z,89.70
2022-09-28T17:36:40.184Z,89.90
2022-09-28T17:39:09.683Z,90.10
2022-09-28T17:41:37.131Z,90.20
2022-09-28T17:44:03.728Z,90.30
2022-09-28T17:46:35.728Z,90.40
2022-09-28T17:49:07.396Z,90.60
2022-09-28T17:51:38.729Z,90.70
2022-09-28T17:54:07.349Z,90.70
2022-09-28T17:56:34.659Z,90.50
2022-09-28T17:59:06.743Z,90.60
2022-09-28T18:01:34.343Z,90.70
2022-09-28T18:04:02.922Z,90.90
2022-09-28T18:06:29.225Z,91.40
2022-09-28T18:08:55.431Z,91.20
2022-09-28T18:11:21.921Z,91.30
2022-09-28T18:13:48.000Z,91.40
2022-09-28T18:16:14.507Z,91.50
2022-09-28T18:18:40.733Z,91.50
2022-09-28T18:21:07.696Z,91.50
2022-09-28T18:23:37.883Z,91.60
2022-09-28T18:26:09.828Z,91.60
2022-09-28T18:28:35.844Z,91.60
2022-09-28T18:31:10.254Z,91.60
2022-09-28T18:33:37.013Z,91.50
2022-09-28T18:36:06.319Z,91.60
2022-09-28T18:38:35.134Z,91.50
2022-09-28T18:41:15.042Z,91.50
2022-09-28T18:43:42.116Z,91.50
2022-09-28T18:46:09.937Z,91.50
2022-09-28T18:48:37.238Z,91.50
2022-09-28T18:51:07.937Z,91.50
2022-09-28T18:53:35.503Z,91.60
2022-09-28T18:56:07.364Z,91.60
2022-09-28T18:58:35.525Z,91.70
2022-09-28T19:01:31.782Z,91.60
2022-09-28T19:03:59.975Z,91.70
2022-09-28T19:06:26.316Z,91.70
2022-09-28T19:08:54.904Z,91.70
2022-09-28T19:11:21.723Z,91.70
2022-09-28T19:13:47.821Z,91.70
2022-09-28T19:16:20.183Z,91.70
2022-09-28T19:18:46.918Z,91.70
2022-09-28T19:21:15.048Z,91.70
2022-09-28T19:23:48.216Z,91.70
2022-09-28T19:26:18.103Z,91.70
2022-09-28T19:28:44.259Z,91.70
2022-09-28T19:31:11.038Z,91.80
2022-09-28T19:33:38.346Z,91.90
2022-09-28T19:36:08.039Z,91.90
2022-09-28T19:38:35.440Z,92.00
2022-09-28T19:41:07.067Z,92.00
2022-09-28T19:43:34.273Z,92.10
2022-09-28T19:46:07.543Z,92.20
2022-09-28T19:48:34.767Z,92.20
2022-09-28T19:51:08.264Z,92.20
2022-09-28T19:53:40.391Z,92.20
2022-09-28T19:56:06.953Z,92.10
2022-09-28T19:58:34.638Z,92.10
2022-09-28T20:01:05.729Z,92.20
2022-09-28T20:03:33.215Z,92.20
2022-09-28T20:06:00.945Z,92.20
2022-09-28T20:08:31.458Z,92.20
2022-09-28T20:11:01.606Z,92.20
2022-09-28T20:13:33.496Z,92.20
2022-09-28T20:16:04.857Z,92.20
2022-09-28T20:18:44.368Z,92.30
2022-09-28T20:21:18.057Z,92.40
2022-09-28T20:23:45.421Z,92.40
2022-09-28T20:26:11.674Z,92.40
2022-09-28T20:28:38.258Z,92.50
2022-09-28T20:31:15.726Z,92.60
2022-09-28T20:33:42.136Z,92.70
2022-09-28T20:36:13.580Z,92.80
2022-09-28T20:38:40.398Z,92.80
2022-09-28T20:41:11.650Z,92.90
2022-09-28T20:43:39.021Z,93.00
2022-09-28T20:46:07.338Z,93.10
2022-09-28T20:48:33.492Z,93.10
2022-09-28T20:51:14.919Z,93.10
2022-09-28T20:53:42.735Z,93.20
2022-09-28T20:56:27.470Z,93.30
2022-09-28T20:58:54.368Z,93.30
2022-09-28T21:01:25.796Z,93.40
2022-09-28T21:03:57.327Z,93.40
2022-09-28T21:06:27.166Z,93.40
2022-09-28T21:08:53.620Z,93.50
2022-09-28T21:11:26.998Z,93.50
2022-09-28T21:13:58.225Z,93.60
2022-09-28T21:16:25.950Z,93.60
2022-09-28T21:18:52.005Z,93.60
2022-09-28T21:21:19.539Z,93.60
2022-09-28T21:23:46.449Z,93.70
2022-09-28T21:26:26.641Z,93.70
2022-09-28T21:28:57.288Z,93.80
2022-09-28T21:31:28.886Z,93.80
2022-09-28T21:33:56.384Z,93.80
2022-09-28T21:36:22.633Z,93.80
2022-09-28T21:38:48.691Z,93.80
2022-09-28T21:41:15.363Z,93.80
2022-09-28T21:43:41.471Z,93.80
2022-09-28T21:46:09.162Z,93.80
2022-09-28T21:48:35.272Z,93.90
2022-09-28T21:51:06.563Z,93.90
2022-09-28T21:53:35.588Z,94.10
2022-09-28T21:56:04.573Z,93.80
2022-09-28T21:58:32.900Z,93.90
2022-09-28T22:01:05.297Z,94.00
2022-09-28T22:03:32.582Z,94.00
2022-09-28T22:05:58.912Z,94.00
2022-09-28T22:08:25.798Z,94.00
2022-09-28T22:11:19.890Z,94.10
2022-09-28T22:13:51.224Z,94.10
2022-09-28T22:16:19.270Z,94.10
2022-09-28T22:18:45.556Z,94.10
2022-09-28T22:21:18.609Z,94.00
2022-09-28T22:23:45.344Z,94.20
2022-09-28T22:26:20.373Z,94.20
2022-09-28T22:28:47.568Z,94.20
2022-09-28T22:31:15.537Z,94.20
2022-09-28T22:33:41.899Z,94.10
2022-09-28T22:36:08.323Z,94.10
2022-09-28T22:38:34.617Z,94.20
2022-09-28T22:41:03.094Z,94.20
2022-09-28T22:43:30.460Z,94.20
2022-09-28T22:46:10.063Z,94.30
2022-09-28T22:48:39.018Z,94.40
2022-09-28T22:51:06.765Z,94.40
2022-09-28T22:53:34.985Z,94.40
2022-09-28T22:56:05.238Z,94.40
2022-09-28T22:58:35.699Z,94.40
2022-09-28T23:01:20.647Z,94.50
2022-09-28T23:03:47.826Z,94.50
2022-09-28T23:09:44.931Z,94.50
2022-09-28T23:12:11.688Z,94.50
2022-09-28T23:14:38.424Z,94.50
2022-09-28T23:17:04.999Z,94.50
2022-09-28T23:19:31.753Z,94.50
2022-09-28T23:21:58.920Z,94.50
2022-09-28T23:24:25.503Z,94.50
2022-09-28T23:26:51.608Z,94.50
2022-09-28T23:29:18.522Z,94.50
2022-09-28T23:31:44.862Z,94.60
2022-09-28T23:34:11.074Z,94.70
2022-09-28T23:36:37.256Z,94.70
2022-09-28T23:39:03.377Z,94.70
2022-09-28T23:41:29.904Z,94.70
2022-09-28T23:43:56.116Z,94.70
2022-09-28T23:46:22.606Z,94.70
2022-09-28T23:48:49.378Z,94.70
2022-09-28T23:51:15.704Z,94.70
2022-09-28T23:53:42.667Z,94.80
2022-09-28T23:56:08.740Z,94.90
2022-09-28T23:58:34.865Z,94.90
